Jump to content


SOUTHWEST AIRLINES FLIGHT WN1113 FLOWN ON 03-14-2018 BY CAPTAIN JIM BOERMAN

Pilot StatsCaptain Jim Boerman (LDP136) • 4,870.7 total hours • 1,472 total flights [View Logbook]
FLIGHT DETAILS
StatusReceived and approved on 2018-03-14 at 10:03:04
Origin AirportSangster Intl (MKJS) • Montego Bay, Jamaica (7 feet MSL)
Filed Flight PlanMKJS KIRAN UL341 PIGBO UL780 URSUS A509 EONNS G430 VKZ KFLL
Destination AirportFt Lauderdale-Hollywood Intl (KFLL) • Ft Lauderdale, Florida, United States (9 feet MSL)
Alternate AirportSouthwest Florida Intl (KRSW) • Ft Myers, Florida, United States (30 feet MSL)
AirlineSouthwest Airlines
AircraftBoeing 737-700 | Winglets (73W / B737-700)
FS Aircraft UsedBoeing 737-7H4NGX Southwest Airlines Winglets
Cruising AltitudeFL360
Distance Flown471 nautical miles
Passengers Onboard90 passengers (66.18% full)
DEPARTURE DETAILS
Time Out07:35:38
Taxi Data133,556 lbs total with 15,306 lbs of fuel onboard
Takeoff Data07:44:50 (9 minutes after leaving gate/ramp) • 133,103 lbs total • 10° pitch at 151 knots
Departure METARMKJS 141100Z 13003KT 9999 FEW020 25/20 Q1014
ARRIVAL DETAILS
Landing Data10:04:18 • 125,523 lbs total • 4° pitch doing 125 knots at a rate of -133.80 feet/minute with 6,914 lbs of fuel onboard
Time In10:12:59 (9 minutes after landing)
Ramp Weight125,164 lbs total
Total Fuel Used8,392 lbs
Total Block Time01:37:20 (1.6 hours) while 18 minutes were spent on the ground
Arrival METARKFLL 141353Z 32012KT 10SM FEW046 16/08 A3009 RMK AO2 SLP190 T01560083
MISCELLANEOUS DETAILS
LiveDISPATCH Version4.8.3.1
FS Version
FSUIPC Version5.12
OS VersionWindows 7 32-bit
Screen Resolution1920 x 1080
Pilot's CommentsNo Comments Reported
FLIGHT MAP